sensor_id;sensor_type;location;lat;lon;timestamp;pressure;altitude;pressure_sealevel;temperature;humidity
59409;BME280;45213;32.654;-115.458;2022-09-01T00:01:39;100486.28;;;42.67;17.22
59409;BME280;45213;32.654;-115.458;2022-09-01T00:04:11;100473.84;;;42.65;17.54
59409;BME280;45213;32.654;-115.458;2022-09-01T00:06:42;100476.31;;;42.46;17.66
59409;BME280;45213;32.654;-115.458;2022-09-01T00:09:12;100479.25;;;42.45;17.44
59409;BME280;45213;32.654;-115.458;2022-09-01T00:11:41;100470.59;;;42.41;17.86
59409;BME280;45213;32.654;-115.458;2022-09-01T00:14:08;100478.69;;;42.63;17.46
59409;BME280;45213;32.654;-115.458;2022-09-01T00:16:36;100461.63;;;42.54;17.31
59409;BME280;45213;32.654;-115.458;2022-09-01T00:19:03;100474.63;;;42.45;17.71
59409;BME280;45213;32.654;-115.458;2022-09-01T00:21:34;100472.94;;;42.44;17.17
59409;BME280;45213;32.654;-115.458;2022-09-01T00:24:02;100476.31;;;42.46;17.05
59409;BME280;45213;32.654;-115.458;2022-09-01T00:26:29;100472.44;;;42.34;17.56
59409;BME280;45213;32.654;-115.458;2022-09-01T00:28:55;100470.66;;;42.20;17.81
59409;BME280;45213;32.654;-115.458;2022-09-01T00:31:23;100466.00;;;42.13;17.14
59409;BME280;45213;32.654;-115.458;2022-09-01T00:33:50;100462.22;;;42.14;17.36
59409;BME280;45213;32.654;-115.458;2022-09-01T00:36:18;100475.66;;;42.09;17.58
59409;BME280;45213;32.654;-115.458;2022-09-01T00:38:46;100470.97;;;42.03;17.62
59409;BME280;45213;32.654;-115.458;2022-09-01T00:41:14;100471.84;;;42.10;17.24
59409;BME280;45213;32.654;-115.458;2022-09-01T00:43:59;100462.81;;;42.10;17.02
59409;BME280;45213;32.654;-115.458;2022-09-01T00:46:42;100458.41;;;42.09;16.99
59409;BME280;45213;32.654;-115.458;2022-09-01T00:54:44;100453.59;;;41.89;17.76
59409;BME280;45213;32.654;-115.458;2022-09-01T00:57:11;100447.34;;;41.96;17.08
59409;BME280;45213;32.654;-115.458;2022-09-01T00:59:54;100453.59;;;41.89;17.15
59409;BME280;45213;32.654;-115.458;2022-09-01T01:02:22;100449.53;;;41.79;17.12
59409;BME280;45213;32.654;-115.458;2022-09-01T01:04:49;100447.84;;;41.78;17.01
59409;BME280;45213;32.654;-115.458;2022-09-01T01:07:19;100436.41;;;41.67;17.56
59409;BME280;45213;32.654;-115.458;2022-09-01T01:09:48;100445.00;;;41.64;17.07
59409;BME280;45213;32.654;-115.458;2022-09-01T01:12:15;100438.25;;;41.60;17.02
59409;BME280;45213;32.654;-115.458;2022-09-01T01:14:48;100453.03;;;41.66;17.17
59409;BME280;45213;32.654;-115.458;2022-09-01T01:17:20;100444.56;;;41.61;17.03
59409;BME280;45213;32.654;-115.458;2022-09-01T01:20:00;100450.34;;;41.51;17.35
59409;BME280;45213;32.654;-115.458;2022-09-01T01:23:09;100431.38;;;41.43;17.43
59409;BME280;45213;32.654;-115.458;2022-09-01T01:25:55;100433.75;;;41.31;17.04
59409;BME280;45213;32.654;-115.458;2022-09-01T01:28:29;100441.31;;;41.29;17.31
59409;BME280;45213;32.654;-115.458;2022-09-01T01:31:26;100444.03;;;41.29;17.19
59409;BME280;45213;32.654;-115.458;2022-09-01T01:33:55;100430.53;;;41.21;17.20
59409;BME280;45213;32.654;-115.458;2022-09-01T01:36:30;100433.25;;;41.21;17.06
59409;BME280;45213;32.654;-115.458;2022-09-01T01:39:14;100437.59;;;41.15;17.16
59409;BME280;45213;32.654;-115.458;2022-09-01T01:41:43;100440.22;;;41.08;17.33
59409;BME280;45213;32.654;-115.458;2022-09-01T01:44:18;100438.09;;;41.04;17.09
59409;BME280;45213;32.654;-115.458;2022-09-01T01:46:48;100439.53;;;41.00;16.98
59409;BME280;45213;32.654;-115.458;2022-09-01T01:49:18;100439.25;;;40.95;17.03
59409;BME280;45213;32.654;-115.458;2022-09-01T01:51:50;100441.72;;;40.89;16.97
59409;BME280;45213;32.654;-115.458;2022-09-01T01:54:25;100435.34;;;40.82;17.23
59409;BME280;45213;32.654;-115.458;2022-09-01T01:56:59;100426.44;;;40.74;17.08
59409;BME280;45213;32.654;-115.458;2022-09-01T01:59:26;100424.63;;;40.66;17.28
59409;BME280;45213;32.654;-115.458;2022-09-01T02:01:54;100436.91;;;40.70;17.08
59409;BME280;45213;32.654;-115.458;2022-09-01T02:04:21;100440.19;;;40.65;17.26
59409;BME280;45213;32.654;-115.458;2022-09-01T02:06:53;100437.63;;;40.64;17.12
59409;BME280;45213;32.654;-115.458;2022-09-01T02:09:21;100435.00;;;40.56;17.55
59409;BME280;45213;32.654;-115.458;2022-09-01T02:11:48;100430.94;;;40.52;17.72
59409;BME280;45213;32.654;-115.458;2022-09-01T02:14:25;100429.75;;;40.39;17.83
59409;BME280;45213;32.654;-115.458;2022-09-01T02:16:52;100435.97;;;40.33;17.89
59409;BME280;45213;32.654;-115.458;2022-09-01T02:19:21;100429.84;;;40.31;17.75
59409;BME280;45213;32.654;-115.458;2022-09-01T02:21:52;100429.66;;;40.33;17.80
59409;BME280;45213;32.654;-115.458;2022-09-01T02:24:22;100431.28;;;40.27;18.41
59409;BME280;45213;32.654;-115.458;2022-09-01T02:26:57;100434.25;;;40.17;18.26
59409;BME280;45213;32.654;-115.458;2022-09-01T02:29:29;100439.53;;;40.19;18.25
59409;BME280;45213;32.654;-115.458;2022-09-01T02:31:56;100438.88;;;40.17;18.33
59409;BME280;45213;32.654;-115.458;2022-09-01T02:34:25;100448.53;;;40.19;18.43
59409;BME280;45213;32.654;-115.458;2022-09-01T02:36:55;100454.94;;;40.12;18.66
59409;BME280;45213;32.654;-115.458;2022-09-01T02:39:29;100447.91;;;40.02;18.63
59409;BME280;45213;32.654;-115.458;2022-09-01T02:42:00;100448.16;;;40.07;18.60
59409;BME280;45213;32.654;-115.458;2022-09-01T02:44:30;100444.13;;;40.03;18.73
59409;BME280;45213;32.654;-115.458;2022-09-01T02:46:58;100446.19;;;40.01;19.00
59409;BME280;45213;32.654;-115.458;2022-09-01T02:49:27;100459.38;;;39.98;19.02
59409;BME280;45213;32.654;-115.458;2022-09-01T02:51:57;100455.47;;;39.92;19.29
59409;BME280;45213;32.654;-115.458;2022-09-01T02:54:29;100453.97;;;39.90;19.09
59409;BME280;45213;32.654;-115.458;2022-09-01T02:56:56;100456.25;;;39.86;18.98
59409;BME280;45213;32.654;-115.458;2022-09-01T02:59:25;100461.22;;;39.82;19.30
59409;BME280;45213;32.654;-115.458;2022-09-01T03:01:59;100458.34;;;39.76;19.17
59409;BME280;45213;32.654;-115.458;2022-09-01T03:04:25;100462.75;;;39.77;18.99
59409;BME280;45213;32.654;-115.458;2022-09-01T03:06:52;100457.56;;;39.67;19.29
59409;BME280;45213;32.654;-115.458;2022-09-01T03:09:20;100476.09;;;39.72;18.95
59409;BME280;45213;32.654;-115.458;2022-09-01T03:11:52;100473.63;;;39.62;20.30
59409;BME280;45213;32.654;-115.458;2022-09-01T03:14:20;100477.28;;;39.54;19.29
59409;BME280;45213;32.654;-115.458;2022-09-01T03:16:50;100478.19;;;39.46;19.19
59409;BME280;45213;32.654;-115.458;2022-09-01T03:19:18;100477.72;;;39.43;19.08
59409;BME280;45213;32.654;-115.458;2022-09-01T03:21:45;100468.06;;;39.32;19.00
59409;BME280;45213;32.654;-115.458;2022-09-01T03:24:16;100484.56;;;39.39;19.09
59409;BME280;45213;32.654;-115.458;2022-09-01T03:26:45;100492.03;;;39.37;18.96
59409;BME280;45213;32.654;-115.458;2022-09-01T03:29:16;100489.00;;;39.32;19.07
59409;BME280;45213;32.654;-115.458;2022-09-01T03:31:43;100497.19;;;39.32;18.72
59409;BME280;45213;32.654;-115.458;2022-09-01T03:34:11;100504.00;;;39.28;18.98
59409;BME280;45213;32.654;-115.458;2022-09-01T03:36:44;100496.56;;;39.21;19.32
59409;BME280;45213;32.654;-115.458;2022-09-01T03:39:18;100500.41;;;39.04;19.67
59409;BME280;45213;32.654;-115.458;2022-09-01T03:41:45;100498.72;;;39.03;19.02
59409;BME280;45213;32.654;-115.458;2022-09-01T03:44:13;100499.69;;;39.10;19.04
59409;BME280;45213;32.654;-115.458;2022-09-01T03:46:40;100496.78;;;39.12;19.58
59409;BME280;45213;32.654;-115.458;2022-09-01T03:49:09;100503.78;;;39.06;19.25
59409;BME280;45213;32.654;-115.458;2022-09-01T03:51:43;100499.78;;;38.94;19.80
59409;BME280;45213;32.654;-115.458;2022-09-01T03:54:11;100499.41;;;38.97;19.34
59409;BME280;45213;32.654;-115.458;2022-09-01T03:56:41;100493.81;;;38.90;20.26
59409;BME280;45213;32.654;-115.458;2022-09-01T03:59:14;100487.91;;;38.78;19.38
59409;BME280;45213;32.654;-115.458;2022-09-01T04:01:46;100501.19;;;38.81;19.90
59409;BME280;45213;32.654;-115.458;2022-09-01T04:04:16;100491.88;;;38.68;19.96
59409;BME280;45213;32.654;-115.458;2022-09-01T04:06:44;100503.66;;;38.60;19.93
59409;BME280;45213;32.654;-115.458;2022-09-01T04:09:12;100507.03;;;38.62;19.91
59409;BME280;45213;32.654;-115.458;2022-09-01T04:11:42;100504.88;;;38.49;20.07
59409;BME280;45213;32.654;-115.458;2022-09-01T04:14:12;100521.69;;;38.44;20.01
59409;BME280;45213;32.654;-115.458;2022-09-01T04:16:39;100508.75;;;38.47;19.85
59409;BME280;45213;32.654;-115.458;2022-09-01T04:19:25;100516.91;;;38.47;20.13
59409;BME280;45213;32.654;-115.458;2022-09-01T04:21:57;100519.63;;;38.47;19.94
59409;BME280;45213;32.654;-115.458;2022-09-01T04:24:29;100520.38;;;38.32;19.88
59409;BME280;45213;32.654;-115.458;2022-09-01T04:26:59;100524.13;;;38.23;20.19
59409;BME280;45213;32.654;-115.458;2022-09-01T04:29:29;100512.06;;;38.34;20.15
59409;BME280;45213;32.654;-115.458;2022-09-01T04:32:06;100515.59;;;38.34;20.05
59409;BME280;45213;32.654;-115.458;2022-09-01T04:34:38;100505.09;;;38.23;19.84
59409;BME280;45213;32.654;-115.458;2022-09-01T04:37:16;100506.09;;;38.22;19.91
59409;BME280;45213;32.654;-115.458;2022-09-01T04:39:54;100495.09;;;37.91;20.14
59409;BME280;45213;32.654;-115.458;2022-09-01T04:42:23;100508.53;;;37.84;21.14
59409;BME280;45213;32.654;-115.458;2022-09-01T04:44:52;100503.06;;;37.68;21.06
59409;BME280;45213;32.654;-115.458;2022-09-01T04:47:20;100497.81;;;37.58;22.13
59409;BME280;45213;32.654;-115.458;2022-09-01T04:49:59;100490.47;;;37.42;21.96
59409;BME280;45213;32.654;-115.458;2022-09-01T04:52:28;100513.22;;;37.41;22.21
59409;BME280;45213;32.654;-115.458;2022-09-01T04:54:59;100505.41;;;37.30;22.57
59409;BME280;45213;32.654;-115.458;2022-09-01T04:57:25;100503.34;;;37.24;22.11
59409;BME280;45213;32.654;-115.458;2022-09-01T04:59:54;100495.56;;;37.37;22.00
59409;BME280;45213;32.654;-115.458;2022-09-01T05:02:30;100498.13;;;37.47;21.64
59409;BME280;45213;32.654;-115.458;2022-09-01T05:05:00;100509.16;;;37.45;22.01
59409;BME280;45213;32.654;-115.458;2022-09-01T05:07:28;100506.09;;;37.48;21.56
59409;BME280;45213;32.654;-115.458;2022-09-01T05:09:55;100498.84;;;37.57;21.47
59409;BME280;45213;32.654;-115.458;2022-09-01T05:12:44;100519.91;;;37.71;22.08
59409;BME280;45213;32.654;-115.458;2022-09-01T05:15:19;100524.47;;;37.63;21.98
59409;BME280;45213;32.654;-115.458;2022-09-01T05:17:50;100501.16;;;37.35;22.33
59409;BME280;45213;32.654;-115.458;2022-09-01T05:20:23;100519.13;;;37.28;22.06
59409;BME280;45213;32.654;-115.458;2022-09-01T05:22:50;100523.56;;;37.29;23.80
59409;BME280;45213;32.654;-115.458;2022-09-01T05:25:20;100513.69;;;37.12;23.12
59409;BME280;45213;32.654;-115.458;2022-09-01T05:27:48;100512.09;;;37.01;23.39
59409;BME280;45213;32.654;-115.458;2022-09-01T05:30:20;100487.97;;;36.82;23.41
59409;BME280;45213;32.654;-115.458;2022-09-01T05:32:48;100510.50;;;36.90;24.15
59409;BME280;45213;32.654;-115.458;2022-09-01T05:35:21;100498.81;;;36.90;23.85
59409;BME280;45213;32.654;-115.458;2022-09-01T05:37:51;100515.34;;;37.05;23.17
59409;BME280;45213;32.654;-115.458;2022-09-01T05:40:18;100512.84;;;37.19;22.88
59409;BME280;45213;32.654;-115.458;2022-09-01T05:42:46;100515.06;;;37.16;23.56
59409;BME280;45213;32.654;-115.458;2022-09-01T05:45:13;100509.03;;;37.04;23.58
59409;BME280;45213;32.654;-115.458;2022-09-01T05:47:48;100509.38;;;36.93;23.12
59409;BME280;45213;32.654;-115.458;2022-09-01T05:50:17;100506.44;;;36.86;23.60
59409;BME280;45213;32.654;-115.458;2022-09-01T05:52:44;100515.44;;;36.87;24.20
59409;BME280;45213;32.654;-115.458;2022-09-01T05:55:13;100499.31;;;36.85;23.22
59409;BME280;45213;32.654;-115.458;2022-09-01T05:57:48;100501.31;;;36.75;23.79
59409;BME280;45213;32.654;-115.458;2022-09-01T06:00:16;100505.88;;;36.74;24.19
59409;BME280;45213;32.654;-115.458;2022-09-01T06:02:47;100520.13;;;36.76;23.26
59409;BME280;45213;32.654;-115.458;2022-09-01T06:05:18;100518.94;;;36.79;24.04
59409;BME280;45213;32.654;-115.458;2022-09-01T06:07:50;100507.94;;;36.72;23.86
59409;BME280;45213;32.654;-115.458;2022-09-01T06:10:19;100516.06;;;36.72;24.22
59409;BME280;45213;32.654;-115.458;2022-09-01T06:12:49;100519.34;;;36.58;24.32
59409;BME280;45213;32.654;-115.458;2022-09-01T06:15:18;100519.72;;;36.63;23.48
59409;BME280;45213;32.654;-115.458;2022-09-01T06:17:49;100523.47;;;36.62;23.63
59409;BME280;45213;32.654;-115.458;2022-09-01T06:20:18;100523.81;;;36.59;23.93
59409;BME280;45213;32.654;-115.458;2022-09-01T06:22:44;100524.19;;;36.46;23.97
59409;BME280;45213;32.654;-115.458;2022-09-01T06:25:13;100530.81;;;36.44;23.97
59409;BME280;45213;32.654;-115.458;2022-09-01T06:27:43;100508.69;;;36.30;23.89
59409;BME280;45213;32.654;-115.458;2022-09-01T06:30:11;100518.22;;;36.34;24.50
59409;BME280;45213;32.654;-115.458;2022-09-01T06:32:53;100525.28;;;36.27;24.26
59409;BME280;45213;32.654;-115.458;2022-09-01T06:35:23;100523.75;;;36.25;24.93
59409;BME280;45213;32.654;-115.458;2022-09-01T06:37:56;100535.03;;;36.20;25.39
59409;BME280;45213;32.654;-115.458;2022-09-01T06:41:00;100531.56;;;36.28;24.93
59409;BME280;45213;32.654;-115.458;2022-09-01T06:43:32;100529.69;;;36.28;24.42
59409;BME280;45213;32.654;-115.458;2022-09-01T06:46:01;100531.75;;;36.34;25.30
59409;BME280;45213;32.654;-115.458;2022-09-01T06:48:29;100530.59;;;36.37;24.85
59409;BME280;45213;32.654;-115.458;2022-09-01T06:51:04;100534.50;;;36.43;24.47
59409;BME280;45213;32.654;-115.458;2022-09-01T06:53:35;100536.56;;;36.41;24.24
59409;BME280;45213;32.654;-115.458;2022-09-01T06:56:05;100538.94;;;36.44;24.70
59409;BME280;45213;32.654;-115.458;2022-09-01T06:58:33;100542.28;;;36.37;24.72
59409;BME280;45213;32.654;-115.458;2022-09-01T07:01:05;100541.91;;;36.32;24.61
59409;BME280;45213;32.654;-115.458;2022-09-01T07:03:32;100533.91;;;36.23;24.65
59409;BME280;45213;32.654;-115.458;2022-09-01T07:06:18;100523.28;;;36.29;23.45
59409;BME280;45213;32.654;-115.458;2022-09-01T07:09:08;100536.69;;;36.39;23.04
59409;BME280;45213;32.654;-115.458;2022-09-01T07:11:35;100535.25;;;36.27;22.88
59409;BME280;45213;32.654;-115.458;2022-09-01T07:14:04;100519.72;;;36.11;23.01
59409;BME280;45213;32.654;-115.458;2022-09-01T07:16:34;100536.00;;;36.11;22.80
59409;BME280;45213;32.654;-115.458;2022-09-01T07:19:08;100538.63;;;36.03;22.71
59409;BME280;45213;32.654;-115.458;2022-09-01T07:22:01;100532.75;;;35.89;22.72
59409;BME280;45213;32.654;-115.458;2022-09-01T07:24:30;100547.63;;;35.85;23.72
59409;BME280;45213;32.654;-115.458;2022-09-01T07:27:22;100549.88;;;35.72;24.45
59409;BME280;45213;32.654;-115.458;2022-09-01T07:29:54;100524.56;;;35.45;25.15
59409;BME280;45213;32.654;-115.458;2022-09-01T07:32:24;100547.06;;;35.46;25.54
59409;BME280;45213;32.654;-115.458;2022-09-01T07:34:51;100551.53;;;35.37;26.42
59409;BME280;45213;32.654;-115.458;2022-09-01T07:37:20;100544.09;;;35.21;26.96
59409;BME280;45213;32.654;-115.458;2022-09-01T07:39:49;100527.41;;;34.98;27.58
59409;BME280;45213;32.654;-115.458;2022-09-01T07:42:39;100548.19;;;34.98;28.50
59409;BME280;45213;32.654;-115.458;2022-09-01T07:45:32;100560.16;;;34.95;29.29
59409;BME280;45213;32.654;-115.458;2022-09-01T07:48:05;100550.69;;;34.81;30.84
59409;BME280;45213;32.654;-115.458;2022-09-01T07:50:42;100543.31;;;34.73;31.51
59409;BME280;45213;32.654;-115.458;2022-09-01T07:53:21;100560.00;;;34.59;33.67
59409;BME280;45213;32.654;-115.458;2022-09-01T07:55:53;100560.75;;;34.42;36.46
59409;BME280;45213;32.654;-115.458;2022-09-01T07:58:23;100559.81;;;34.23;37.97
59409;BME280;45213;32.654;-115.458;2022-09-01T08:00:59;100551.28;;;34.18;39.43
59409;BME280;45213;32.654;-115.458;2022-09-01T08:03:29;100544.16;;;34.17;40.06
59409;BME280;45213;32.654;-115.458;2022-09-01T08:06:05;100562.22;;;34.07;41.47
59409;BME280;45213;32.654;-115.458;2022-09-01T08:08:39;100555.97;;;33.97;42.85
59409;BME280;45213;32.654;-115.458;2022-09-01T08:11:07;100537.63;;;33.81;43.52
59409;BME280;45213;32.654;-115.458;2022-09-01T08:13:35;100558.09;;;33.83;44.20
59409;BME280;45213;32.654;-115.458;2022-09-01T08:16:06;100546.03;;;33.68;45.17
59409;BME280;45213;32.654;-115.458;2022-09-01T08:18:34;100548.75;;;33.68;45.56
59409;BME280;45213;32.654;-115.458;2022-09-01T08:21:06;100552.41;;;33.67;46.19
59409;BME280;45213;32.654;-115.458;2022-09-01T08:23:55;100543.72;;;33.54;47.70
59409;BME280;45213;32.654;-115.458;2022-09-01T08:26:24;100553.78;;;33.52;48.20
59409;BME280;45213;32.654;-115.458;2022-09-01T08:28:53;100547.84;;;33.48;48.80
59409;BME280;45213;32.654;-115.458;2022-09-01T08:31:31;100533.34;;;33.39;49.40
59409;BME280;45213;32.654;-115.458;2022-09-01T08:34:00;100540.16;;;33.43;49.23
59409;BME280;45213;32.654;-115.458;2022-09-01T08:36:31;100545.28;;;33.46;50.00
59409;BME280;45213;32.654;-115.458;2022-09-01T08:38:58;100531.91;;;33.35;50.19
59409;BME280;45213;32.654;-115.458;2022-09-01T08:41:42;100528.22;;;33.36;50.29
59409;BME280;45213;32.654;-115.458;2022-09-01T08:47:14;100547.25;;;33.44;50.42
59409;BME280;45213;32.654;-115.458;2022-09-01T08:49:46;100511.75;;;33.30;50.38
59409;BME280;45213;32.654;-115.458;2022-09-01T08:53:55;100536.75;;;33.41;50.14
59409;BME280;45213;32.654;-115.458;2022-09-01T08:55:56;100539.03;;;33.46;49.80
59409;BME280;45213;32.654;-115.458;2022-09-01T08:58:24;100535.31;;;33.37;49.20
59409;BME280;45213;32.654;-115.458;2022-09-01T09:01:39;100506.34;;;33.30;49.45
59409;BME280;45213;32.654;-115.458;2022-09-01T09:07:18;100532.19;;;33.42;49.21
59409;BME280;45213;32.654;-115.458;2022-09-01T09:09:57;100536.47;;;33.44;48.68
59409;BME280;45213;32.654;-115.458;2022-09-01T09:12:43;100537.72;;;33.40;48.72
59409;BME280;45213;32.654;-115.458;2022-09-01T09:17:53;100532.91;;;33.34;48.83
59409;BME280;45213;32.654;-115.458;2022-09-01T09:20:30;100534.91;;;33.32;48.79
59409;BME280;45213;32.654;-115.458;2022-09-01T09:23:01;100542.09;;;33.32;48.98
59409;BME280;45213;32.654;-115.458;2022-09-01T09:25:47;100545.81;;;33.31;49.15
59409;BME280;45213;32.654;-115.458;2022-09-01T09:28:17;100541.84;;;33.25;49.09
59409;BME280;45213;32.654;-115.458;2022-09-01T09:30:43;100542.94;;;33.22;49.13
59409;BME280;45213;32.654;-115.458;2022-09-01T09:33:34;100548.22;;;33.24;49.15
59409;BME280;45213;32.654;-115.458;2022-09-01T09:36:23;100544.09;;;33.20;49.38
59409;BME280;45213;32.654;-115.458;2022-09-01T09:39:13;100522.16;;;33.03;49.97
59409;BME280;45213;32.654;-115.458;2022-09-01T09:41:59;100547.59;;;33.11;50.50
59409;BME280;45213;32.654;-115.458;2022-09-01T09:44:30;100543.72;;;33.03;51.16
59409;BME280;45213;32.654;-115.458;2022-09-01T09:47:04;100545.16;;;32.98;51.93
59409;BME280;45213;32.654;-115.458;2022-09-01T09:49:32;100528.91;;;32.88;52.37
59409;BME280;45213;32.654;-115.458;2022-09-01T09:54:37;100553.06;;;32.90;53.54
59409;BME280;45213;32.654;-115.458;2022-09-01T09:57:14;100550.59;;;32.77;54.55
59409;BME280;45213;32.654;-115.458;2022-09-01T09:59:59;100555.81;;;32.69;55.13
59409;BME280;45213;32.654;-115.458;2022-09-01T10:02:38;100551.25;;;32.59;55.63
59409;BME280;45213;32.654;-115.458;2022-09-01T10:08:04;100554.94;;;32.47;56.88
59409;BME280;45213;32.654;-115.458;2022-09-01T10:10:38;100563.19;;;32.45;57.55
59409;BME280;45213;32.654;-115.458;2022-09-01T10:13:10;100559.88;;;32.42;57.98
59409;BME280;45213;32.654;-115.458;2022-09-01T10:15:38;100553.06;;;32.38;58.08
59409;BME280;45213;32.654;-115.458;2022-09-01T10:18:09;100557.28;;;32.31;58.89
59409;BME280;45213;32.654;-115.458;2022-09-01T10:20:47;100559.75;;;32.22;59.92
59409;BME280;45213;32.654;-115.458;2022-09-01T10:23:18;100548.97;;;32.22;60.05
59409;BME280;45213;32.654;-115.458;2022-09-01T10:25:45;100551.50;;;32.14;60.56
59409;BME280;45213;32.654;-115.458;2022-09-01T10:28:17;100556.03;;;32.14;60.96
59409;BME280;45213;32.654;-115.458;2022-09-01T10:30:53;100550.38;;;32.17;61.21
59409;BME280;45213;32.654;-115.458;2022-09-01T10:33:21;100549.06;;;32.11;61.52
59409;BME280;45213;32.654;-115.458;2022-09-01T10:35:50;100546.63;;;32.08;62.19
59409;BME280;45213;32.654;-115.458;2022-09-01T10:38:25;100551.22;;;31.96;62.88
59409;BME280;45213;32.654;-115.458;2022-09-01T10:40:57;100553.91;;;31.96;63.14
59409;BME280;45213;32.654;-115.458;2022-09-01T10:48:47;100551.25;;;31.85;64.14
59409;BME280;45213;32.654;-115.458;2022-09-01T10:53:51;100546.72;;;31.86;64.14
59409;BME280;45213;32.654;-115.458;2022-09-01T11:10:21;100562.44;;;31.69;64.94
59409;BME280;45213;32.654;-115.458;2022-09-01T11:15:52;100554.19;;;31.50;64.82
59409;BME280;45213;32.654;-115.458;2022-09-01T11:18:28;100572.63;;;31.54;64.89
59409;BME280;45213;32.654;-115.458;2022-09-01T11:21:28;100581.59;;;31.55;64.78
59409;BME280;45213;32.654;-115.458;2022-09-01T11:27:12;100576.81;;;31.36;65.64
59409;BME280;45213;32.654;-115.458;2022-09-01T11:30:00;100553.25;;;31.17;65.88
59409;BME280;45213;32.654;-115.458;2022-09-01T11:32:33;100598.88;;;31.41;65.86
59409;BME280;45213;32.654;-115.458;2022-09-01T11:35:03;100577.72;;;31.25;65.80
59409;BME280;45213;32.654;-115.458;2022-09-01T11:37:34;100609.72;;;31.39;65.71
59409;BME280;45213;32.654;-115.458;2022-09-01T11:40:04;100601.19;;;31.34;65.84
59409;BME280;45213;32.654;-115.458;2022-09-01T11:42:40;100617.06;;;31.37;65.22
59409;BME280;45213;32.654;-115.458;2022-09-01T11:47:45;100610.00;;;31.25;65.22
59409;BME280;45213;32.654;-115.458;2022-09-01T11:50:17;100627.19;;;31.34;64.92
59409;BME280;45213;32.654;-115.458;2022-09-01T11:53:13;100629.03;;;31.33;64.74
59409;BME280;45213;32.654;-115.458;2022-09-01T11:55:45;100648.00;;;31.32;64.45
59409;BME280;45213;32.654;-115.458;2022-09-01T12:00:56;100635.91;;;31.26;64.58
59409;BME280;45213;32.654;-115.458;2022-09-01T12:03:30;100643.97;;;31.26;64.48
59409;BME280;45213;32.654;-115.458;2022-09-01T12:06:05;100638.69;;;31.25;64.42
59409;BME280;45213;32.654;-115.458;2022-09-01T12:08:36;100635.41;;;31.21;64.26
59409;BME280;45213;32.654;-115.458;2022-09-01T12:11:28;100628.09;;;31.12;64.54
59409;BME280;45213;32.654;-115.458;2022-09-01T12:14:09;100638.34;;;31.18;64.31
59409;BME280;45213;32.654;-115.458;2022-09-01T12:16:38;100643.50;;;31.21;64.15
59409;BME280;45213;32.654;-115.458;2022-09-01T12:19:20;100647.66;;;31.14;64.61
59409;BME280;45213;32.654;-115.458;2022-09-01T12:21:58;100649.59;;;31.12;64.48
59409;BME280;45213;32.654;-115.458;2022-09-01T12:24:26;100663.53;;;31.06;64.79
59409;BME280;45213;32.654;-115.458;2022-09-01T12:26:54;100646.66;;;31.04;64.53
59409;BME280;45213;32.654;-115.458;2022-09-01T12:29:24;100653.25;;;31.11;64.52
59409;BME280;45213;32.654;-115.458;2022-09-01T12:31:52;100663.16;;;31.10;64.66
59409;BME280;45213;32.654;-115.458;2022-09-01T12:34:42;100664.38;;;30.95;65.18
59409;BME280;45213;32.654;-115.458;2022-09-01T12:37:20;100671.59;;;30.94;64.93
59409;BME280;45213;32.654;-115.458;2022-09-01T12:39:53;100665.47;;;30.92;65.13
59409;BME280;45213;32.654;-115.458;2022-09-01T12:44:49;100662.50;;;30.84;65.18
59409;BME280;45213;32.654;-115.458;2022-09-01T12:52:32;100651.72;;;30.62;65.63
59409;BME280;45213;32.654;-115.458;2022-09-01T12:57:36;100677.38;;;30.77;65.38
59409;BME280;45213;32.654;-115.458;2022-09-01T13:00:17;100677.63;;;30.74;65.16
59409;BME280;45213;32.654;-115.458;2022-09-01T13:02:50;100689.47;;;30.71;65.75
59409;BME280;45213;32.654;-115.458;2022-09-01T13:05:42;100686.91;;;30.70;66.01
59409;BME280;45213;32.654;-115.458;2022-09-01T13:08:12;100694.47;;;30.65;66.00
59409;BME280;45213;32.654;-115.458;2022-09-01T13:13:09;100677.56;;;30.51;65.60
59409;BME280;45213;32.654;-115.458;2022-09-01T13:15:38;100709.38;;;30.69;65.43
59409;BME280;45213;32.654;-115.458;2022-09-01T13:18:05;100722.81;;;30.69;65.36
59409;BME280;45213;32.654;-115.458;2022-09-01T13:20:32;100733.19;;;30.62;65.63
59409;BME280;45213;32.654;-115.458;2022-09-01T13:22:59;100710.31;;;30.56;65.32
59409;BME280;45213;32.654;-115.458;2022-09-01T13:25:25;100725.03;;;30.64;65.47
59409;BME280;45213;32.654;-115.458;2022-09-01T13:27:52;100730.41;;;30.64;65.56
59409;BME280;45213;32.654;-115.458;2022-09-01T13:30:24;100738.47;;;30.64;65.18
59409;BME280;45213;32.654;-115.458;2022-09-01T13:32:53;100742.69;;;30.55;65.69
59409;BME280;45213;32.654;-115.458;2022-09-01T13:35:21;100747.44;;;30.51;65.93
59409;BME280;45213;32.654;-115.458;2022-09-01T13:37:48;100755.38;;;30.53;65.96
59409;BME280;45213;32.654;-115.458;2022-09-01T13:40:16;100745.72;;;30.50;66.37
59409;BME280;45213;32.654;-115.458;2022-09-01T13:42:46;100758.81;;;30.55;66.28
59409;BME280;45213;32.654;-115.458;2022-09-01T13:45:13;100741.81;;;30.54;66.98
59409;BME280;45213;32.654;-115.458;2022-09-01T13:47:42;100742.31;;;30.48;67.21
59409;BME280;45213;32.654;-115.458;2022-09-01T13:50:10;100753.84;;;30.62;67.39
59409;BME280;45213;32.654;-115.458;2022-09-01T13:52:44;100765.44;;;30.62;67.33
59409;BME280;45213;32.654;-115.458;2022-09-01T13:55:16;100763.88;;;30.71;67.32